Glendale, Massachusetts
Current Conditions -  °F | °C
As of 1:54 AM on Saturday 25 Oct 2014 (Local Time) from KPSF Reporting Station
Clear Clear  
Wind Chill: 38°   Ceiling: Unl
Heat Index: 43°   Visibility: 10mi
Dew Point: 40°   Wind: 9mph
Humidity: 89%   Direction: 290°WNW
Pressure: 29.81"   Gusts: NA
Location:  42.28°N, 73.34°W
Report Text: KPSF 250554Z AUTO 29008KT 10SM CLR 06/04 A2981 RMK AO2 SLP090 T00610044 10089 20056 58003
Loading
Personal Weather Stations






























Interactive Weather Map
Tropical Storm Tracking
New forecast layout! Learn more

10-Day Weather Forecast

Advertisements
Track Severe Weather on mobile